createdAt,value
2019-03-17T00:01:21.961Z,66.63
2019-03-17T00:03:51.458Z,66.87
2019-03-17T00:06:20.953Z,66.70
2019-03-17T00:08:51.471Z,66.88
2019-03-17T00:11:20.832Z,67.37
2019-03-17T00:13:50.275Z,66.50
2019-03-17T00:16:19.678Z,66.50
2019-03-17T00:18:55.078Z,66.58
2019-03-17T00:21:26.117Z,66.62
2019-03-17T00:23:55.545Z,66.86
2019-03-17T00:26:24.948Z,66.97
2019-03-17T00:28:54.396Z,67.09
2019-03-17T00:31:24.453Z,66.80
2019-03-17T00:33:54.026Z,67.18
2019-03-17T00:36:23.447Z,66.28
2019-03-17T00:38:54.503Z,66.87
2019-03-17T00:41:23.943Z,66.63
2019-03-17T00:43:53.364Z,67.01
2019-03-17T00:46:22.788Z,67.09
2019-03-17T00:48:52.210Z,67.19
2019-03-17T00:51:21.647Z,67.25
2019-03-17T00:53:51.090Z,67.50
2019-03-17T00:56:20.523Z,67.60
2019-03-17T00:58:49.936Z,67.52
2019-03-17T01:01:19.368Z,67.60
2019-03-17T01:03:51.279Z,67.43
2019-03-17T01:06:20.861Z,67.51
2019-03-17T01:08:50.340Z,67.76
2019-03-17T01:11:19.774Z,67.68
2019-03-17T01:13:49.186Z,67.90
2019-03-17T01:16:18.680Z,67.86
2019-03-17T01:18:48.124Z,67.76
2019-03-17T01:21:17.564Z,67.82
2019-03-17T01:23:46.968Z,67.84
2019-03-17T01:26:16.400Z,67.37
2019-03-17T01:28:45.853Z,67.04
2019-03-17T01:31:15.244Z,67.31
2019-03-17T01:33:44.677Z,67.33
2019-03-17T01:36:14.156Z,67.56
2019-03-17T01:38:43.656Z,67.23
2019-03-17T01:41:13.066Z,67.11
2019-03-17T01:43:42.509Z,66.93
2019-03-17T01:46:11.924Z,67.00
2019-03-17T01:48:41.357Z,66.98
2019-03-17T01:51:10.762Z,66.65
2019-03-17T01:53:40.213Z,67.16
2019-03-17T01:56:10.187Z,67.25
2019-03-17T01:58:39.639Z,67.79
2019-03-17T02:01:11.745Z,68.21
2019-03-17T02:03:40.356Z,68.48
2019-03-17T02:06:11.929Z,68.67
2019-03-17T02:08:41.505Z,68.45
2019-03-17T02:11:10.934Z,68.63
2019-03-17T02:13:40.356Z,68.72
2019-03-17T02:16:11.428Z,68.90
2019-03-17T02:18:40.850Z,68.78
2019-03-17T02:21:10.325Z,68.95
2019-03-17T02:23:39.756Z,69.08
2019-03-17T02:26:09.237Z,68.98
2019-03-17T02:28:38.730Z,69.00
2019-03-17T02:31:08.154Z,69.07
2019-03-17T02:33:40.078Z,69.13
2019-03-17T02:36:09.506Z,69.20
2019-03-17T02:38:38.936Z,69.43
2019-03-17T02:41:08.407Z,69.56
2019-03-17T02:43:38.303Z,69.61
2019-03-17T02:46:08.045Z,69.07
2019-03-17T02:48:38.048Z,69.17
2019-03-17T02:51:08.008Z,68.89
2019-03-17T02:53:37.432Z,68.37
2019-03-17T02:56:06.831Z,68.46
2019-03-17T02:58:36.330Z,67.83
2019-03-17T03:01:05.871Z,67.75
2019-03-17T03:03:37.362Z,67.34
2019-03-17T03:06:06.833Z,67.17
2019-03-17T03:08:36.832Z,66.75
2019-03-17T03:11:06.257Z,66.75
2019-03-17T03:13:35.666Z,66.58
2019-03-17T03:16:06.012Z,66.85
2019-03-17T03:18:35.800Z,67.02
2019-03-17T03:21:05.291Z,67.24
2019-03-17T03:23:37.456Z,67.45
2019-03-17T03:26:11.028Z,67.65
2019-03-17T03:28:40.434Z,67.95
2019-03-17T03:31:09.865Z,68.08
2019-03-17T03:33:39.273Z,68.56
2019-03-17T03:36:11.319Z,68.96
2019-03-17T03:38:39.824Z,69.21
2019-03-17T03:41:10.207Z,69.17
2019-03-17T03:43:39.674Z,69.22
2019-03-17T03:46:09.464Z,69.25
2019-03-17T03:48:38.876Z,68.81
2019-03-17T03:51:09.436Z,69.07
2019-03-17T03:53:41.106Z,69.18
2019-03-17T03:56:10.685Z,69.25
2019-03-17T03:58:42.236Z,69.29
2019-03-17T04:01:14.679Z,69.25
2019-03-17T04:03:44.626Z,68.98
2019-03-17T04:06:26.244Z,68.49
2019-03-17T04:08:49.391Z,68.84
2019-03-17T04:11:18.832Z,68.51
2019-03-17T04:13:48.225Z,68.34
2019-03-17T04:16:23.095Z,68.10
2019-03-17T04:18:52.750Z,67.83
2019-03-17T04:21:23.840Z,67.86
2019-03-17T04:23:53.303Z,67.72
2019-03-17T04:26:22.800Z,67.37
2019-03-17T04:28:55.285Z,67.57
2019-03-17T04:31:27.286Z,67.43
2019-03-17T04:33:59.389Z,67.67
2019-03-17T04:36:39.540Z,67.10
2019-03-17T04:39:03.619Z,67.12
2019-03-17T04:41:38.078Z,67.37
2019-03-17T04:44:20.299Z,67.33
2019-03-17T04:46:41.800Z,67.05
2019-03-17T04:49:11.512Z,66.93
2019-03-17T04:51:40.923Z,67.21
2019-03-17T04:54:10.378Z,66.79
2019-03-17T04:56:39.796Z,66.73
2019-03-17T04:59:09.223Z,67.10
2019-03-17T05:01:38.646Z,67.34
2019-03-17T05:04:08.081Z,67.44
2019-03-17T05:06:37.831Z,67.62
2019-03-17T05:09:07.704Z,67.81
2019-03-17T05:11:37.143Z,68.27
2019-03-17T05:14:06.623Z,68.11
2019-03-17T05:16:36.055Z,68.13
2019-03-17T05:19:05.486Z,68.33
2019-03-17T05:21:34.931Z,68.05
2019-03-17T05:24:04.979Z,67.95
2019-03-17T05:26:35.946Z,67.93
2019-03-17T05:29:05.856Z,68.11
2019-03-17T05:31:35.291Z,67.96
2019-03-17T05:34:04.760Z,68.18
2019-03-17T05:36:34.201Z,68.27
2019-03-17T05:39:05.375Z,68.45
2019-03-17T05:41:34.801Z,68.15
2019-03-17T05:44:06.957Z,67.72
2019-03-17T05:46:39.547Z,67.85
2019-03-17T05:49:08.973Z,67.55
2019-03-17T05:51:38.383Z,67.11
2019-03-17T05:54:07.889Z,67.26
2019-03-17T05:56:37.301Z,66.91
2019-03-17T05:59:06.733Z,66.66
2019-03-17T06:01:36.155Z,66.93
2019-03-17T06:04:06.165Z,66.97
2019-03-17T06:06:38.669Z,66.71
2019-03-17T06:09:08.421Z,66.73
2019-03-17T06:11:37.849Z,66.75
2019-03-17T06:14:07.858Z,66.90
2019-03-17T06:16:37.980Z,66.64
2019-03-17T06:19:07.415Z,66.44
2019-03-17T06:21:36.853Z,66.63
2019-03-17T06:24:06.363Z,66.58
2019-03-17T06:26:35.773Z,66.30
2019-03-17T06:29:05.223Z,66.19
2019-03-17T06:31:34.644Z,66.33
2019-03-17T06:34:04.591Z,66.20
2019-03-17T06:36:34.137Z,66.44
2019-03-17T06:39:05.024Z,66.35
2019-03-17T06:41:34.454Z,66.18
2019-03-17T06:44:03.945Z,66.46
2019-03-17T06:46:33.373Z,66.15
2019-03-17T06:49:02.798Z,66.29
2019-03-17T06:51:33.867Z,66.39
2019-03-17T06:54:03.310Z,66.83
2019-03-17T06:56:32.744Z,66.85
2019-03-17T06:59:02.159Z,66.83
2019-03-17T07:01:31.588Z,67.19
2019-03-17T07:04:00.995Z,67.00
2019-03-17T07:06:30.445Z,67.14
2019-03-17T07:09:00.096Z,66.89
2019-03-17T07:11:29.758Z,66.99
2019-03-17T07:13:59.198Z,66.79
2019-03-17T07:16:28.608Z,66.79
2019-03-17T07:18:58.042Z,66.92
2019-03-17T07:21:29.073Z,66.99
2019-03-17T07:23:58.590Z,66.86
2019-03-17T07:26:30.082Z,67.26
2019-03-17T07:29:03.428Z,67.14
2019-03-17T07:31:32.884Z,66.79
2019-03-17T07:34:02.317Z,66.91
2019-03-17T07:36:31.764Z,67.07
2019-03-17T07:39:11.133Z,67.36
2019-03-17T07:41:33.361Z,67.36
2019-03-17T07:44:02.801Z,67.31
2019-03-17T07:46:32.260Z,67.68
2019-03-17T07:49:01.693Z,68.19
2019-03-17T07:51:31.119Z,69.17
2019-03-17T07:54:00.551Z,69.28
2019-03-17T07:56:29.954Z,70.08
2019-03-17T07:58:59.407Z,70.97
2019-03-17T08:01:28.815Z,71.20
2019-03-17T08:03:58.340Z,71.48
2019-03-17T08:06:27.758Z,71.59
2019-03-17T08:08:57.191Z,71.70
2019-03-17T08:11:26.621Z,70.69
2019-03-17T08:13:56.030Z,70.42
2019-03-17T08:16:26.119Z,70.62
2019-03-17T08:18:55.530Z,71.11
2019-03-17T08:21:24.957Z,71.10
2019-03-17T08:23:54.371Z,71.52
2019-03-17T08:26:23.800Z,72.51
2019-03-17T08:28:53.203Z,72.03
2019-03-17T08:31:24.273Z,71.99
2019-03-17T08:33:56.311Z,71.03
2019-03-17T08:36:25.749Z,72.10
2019-03-17T08:38:55.194Z,72.51
2019-03-17T08:41:24.696Z,73.07
2019-03-17T08:43:54.734Z,72.49
2019-03-17T08:46:24.300Z,72.82
2019-03-17T08:48:55.209Z,73.66
2019-03-17T08:51:24.694Z,73.30
2019-03-17T08:53:54.144Z,73.34
2019-03-17T08:56:23.593Z,72.88
2019-03-17T08:58:53.081Z,72.97
2019-03-17T09:01:22.508Z,73.15
2019-03-17T09:03:52.030Z,73.61
2019-03-17T09:06:21.535Z,73.23
2019-03-17T09:08:51.026Z,73.60
2019-03-17T09:11:20.465Z,73.56
2019-03-17T09:13:49.912Z,74.11
2019-03-17T09:16:19.327Z,75.48
2019-03-17T09:18:48.767Z,75.26
2019-03-17T09:21:22.794Z,78.10
2019-03-17T09:23:52.243Z,79.78
2019-03-17T09:26:21.694Z,78.81
2019-03-17T09:28:51.136Z,78.51
2019-03-17T09:31:20.538Z,78.23
2019-03-17T09:33:50.022Z,79.13
2019-03-17T09:36:25.018Z,80.00
2019-03-17T09:38:50.973Z,79.71
2019-03-17T09:41:20.340Z,79.27
2019-03-17T09:43:52.866Z,79.58
2019-03-17T09:46:23.350Z,80.45
2019-03-17T09:48:52.777Z,80.64
2019-03-17T09:51:22.178Z,80.49
2019-03-17T09:53:51.618Z,80.40
2019-03-17T09:56:21.024Z,80.39
2019-03-17T09:58:50.452Z,79.44
2019-03-17T10:01:19.934Z,79.84
2019-03-17T10:03:51.898Z,78.80
2019-03-17T10:06:21.310Z,78.15
2019-03-17T10:09:00.067Z,78.38
2019-03-17T10:11:26.537Z,78.24
2019-03-17T10:13:55.949Z,78.74
2019-03-17T10:16:25.703Z,78.63
2019-03-17T10:18:55.123Z,77.27
2019-03-17T10:21:24.542Z,77.04
2019-03-17T10:23:57.967Z,78.25
2019-03-17T10:26:29.089Z,76.87
2019-03-17T10:28:58.998Z,77.10
2019-03-17T10:31:29.471Z,76.60
2019-03-17T10:34:02.057Z,77.27
2019-03-17T10:36:32.633Z,76.20
2019-03-17T10:39:12.045Z,76.57
2019-03-17T10:41:34.777Z,76.11
2019-03-17T10:44:07.468Z,76.46
2019-03-17T10:46:36.887Z,75.84
2019-03-17T10:49:06.296Z,75.94
2019-03-17T10:51:35.804Z,74.55
2019-03-17T10:54:08.211Z,74.50
2019-03-17T10:56:38.127Z,74.32
2019-03-17T10:59:10.448Z,73.93
2019-03-17T11:01:38.585Z,74.13
2019-03-17T11:04:10.557Z,74.84
2019-03-17T11:06:40.000Z,73.27
2019-03-17T11:09:09.474Z,72.68
2019-03-17T11:11:38.918Z,72.97
2019-03-17T11:14:11.041Z,72.82
2019-03-17T11:16:40.496Z,72.95
2019-03-17T11:19:09.930Z,71.97
2019-03-17T11:21:42.576Z,70.54
2019-03-17T11:24:12.090Z,71.30
2019-03-17T11:26:41.494Z,71.79
2019-03-17T11:29:10.927Z,69.15
2019-03-17T11:31:40.837Z,69.31
2019-03-17T11:34:12.490Z,69.90
2019-03-17T11:36:43.884Z,70.58
2019-03-17T11:39:13.315Z,69.93
2019-03-17T11:41:42.795Z,69.00
2019-03-17T11:44:13.466Z,70.01
2019-03-17T11:46:47.004Z,69.87
2019-03-17T11:49:16.581Z,67.63
2019-03-17T11:51:46.326Z,68.29
2019-03-17T11:54:15.965Z,66.81
2019-03-17T11:56:45.472Z,66.82
2019-03-17T11:59:14.970Z,67.74
2019-03-17T12:01:49.841Z,67.77
2019-03-17T12:04:19.278Z,67.86
2019-03-17T12:06:51.619Z,68.67
2019-03-17T12:09:29.353Z,67.24
2019-03-17T12:11:55.438Z,67.12
2019-03-17T12:14:30.511Z,66.05
2019-03-17T12:17:00.484Z,64.99
2019-03-17T12:19:32.682Z,66.16
2019-03-17T12:22:09.113Z,64.13
2019-03-17T12:24:32.687Z,64.37
2019-03-17T12:27:02.113Z,65.01
2019-03-17T12:29:31.520Z,64.40
2019-03-17T12:32:03.817Z,64.76
2019-03-17T12:34:35.183Z,64.81
2019-03-17T12:37:07.530Z,63.63
2019-03-17T12:39:36.952Z,63.95
2019-03-17T12:42:06.838Z,63.49
2019-03-17T12:44:36.262Z,63.84
2019-03-17T12:47:05.766Z,64.17
2019-03-17T12:49:38.201Z,63.34
2019-03-17T12:52:10.067Z,63.85
2019-03-17T12:54:40.090Z,63.69
2019-03-17T12:57:09.572Z,63.46
2019-03-17T12:59:39.585Z,63.91
2019-03-17T13:02:11.685Z,63.14
2019-03-17T13:04:41.172Z,63.50
2019-03-17T13:07:10.667Z,63.55
2019-03-17T13:09:42.761Z,63.47
2019-03-17T13:12:12.269Z,64.06
2019-03-17T13:14:41.689Z,64.95
2019-03-17T13:17:11.113Z,66.33
2019-03-17T13:19:40.713Z,67.84
2019-03-17T13:22:10.121Z,70.81
2019-03-17T13:24:39.593Z,73.31
2019-03-17T13:27:09.003Z,75.26
2019-03-17T13:29:38.445Z,76.57
2019-03-17T13:32:07.935Z,78.39
2019-03-17T13:34:37.628Z,78.12
2019-03-17T13:37:07.124Z,78.84
2019-03-17T13:39:36.706Z,78.73
2019-03-17T13:42:06.257Z,77.92
2019-03-17T13:44:35.691Z,78.41
2019-03-17T13:47:05.190Z,78.57
2019-03-17T13:49:34.593Z,78.75
2019-03-17T13:52:04.100Z,78.82
2019-03-17T13:54:35.192Z,77.10
2019-03-17T13:57:04.715Z,75.63
2019-03-17T13:59:34.369Z,75.01
2019-03-17T14:02:05.538Z,75.75
2019-03-17T14:04:36.653Z,75.37
2019-03-17T14:07:06.152Z,73.75
2019-03-17T14:09:35.668Z,72.31
2019-03-17T14:12:05.131Z,72.64
2019-03-17T14:14:34.662Z,73.46
2019-03-17T14:17:04.126Z,69.32
2019-03-17T14:19:33.641Z,68.89
2019-03-17T14:22:06.066Z,69.42
2019-03-17T14:24:35.474Z,68.71
2019-03-17T14:27:05.051Z,69.12
2019-03-17T14:29:34.543Z,70.13
2019-03-17T14:32:04.048Z,69.59
2019-03-17T14:34:33.490Z,71.12
2019-03-17T14:37:06.081Z,71.85
2019-03-17T14:39:34.131Z,73.24
2019-03-17T14:42:03.640Z,73.60
2019-03-17T14:44:37.612Z,73.83
2019-03-17T14:47:04.254Z,73.39
2019-03-17T14:49:33.670Z,74.58
2019-03-17T14:52:03.091Z,75.14
2019-03-17T14:54:34.270Z,74.83
2019-03-17T14:57:03.779Z,75.41
2019-03-17T14:59:33.270Z,76.28
2019-03-17T15:02:02.777Z,73.30
2019-03-17T15:04:32.256Z,71.85
2019-03-17T15:07:03.389Z,70.62
2019-03-17T15:09:32.875Z,69.77
2019-03-17T15:12:02.347Z,68.73
2019-03-17T15:14:31.740Z,69.23
2019-03-17T15:17:01.161Z,68.17
2019-03-17T15:19:30.598Z,68.38
2019-03-17T15:22:00.081Z,68.28
2019-03-17T15:24:29.682Z,68.79
2019-03-17T15:26:59.088Z,68.68
2019-03-17T15:29:28.526Z,70.09
2019-03-17T15:31:57.941Z,69.88
2019-03-17T15:34:27.666Z,68.62
2019-03-17T15:37:05.001Z,68.40
2019-03-17T15:39:33.353Z,67.52
2019-03-17T15:42:02.780Z,66.85
2019-03-17T15:44:32.211Z,65.65
2019-03-17T15:47:01.616Z,66.40
2019-03-17T15:49:31.118Z,67.17
2019-03-17T15:52:00.600Z,66.48
2019-03-17T15:54:30.100Z,65.82
2019-03-17T15:56:59.583Z,65.80
2019-03-17T15:59:29.046Z,65.72
2019-03-17T16:02:01.830Z,65.93
2019-03-17T16:04:35.422Z,64.76
2019-03-17T16:07:06.324Z,65.22
2019-03-17T16:09:35.770Z,64.28
2019-03-17T16:12:10.248Z,63.63
2019-03-17T16:14:40.534Z,64.62
2019-03-17T16:17:10.048Z,64.08
2019-03-17T16:19:41.340Z,63.77
2019-03-17T16:22:10.970Z,63.79
2019-03-17T16:24:40.364Z,64.95
2019-03-17T16:27:09.792Z,64.89
2019-03-17T16:29:39.209Z,65.38
2019-03-17T16:32:08.788Z,65.40
2019-03-17T16:34:38.206Z,66.11
2019-03-17T16:37:07.648Z,66.47
2019-03-17T16:39:37.088Z,66.52
2019-03-17T16:42:06.591Z,66.07
2019-03-17T16:44:36.270Z,66.74
2019-03-17T16:47:05.909Z,66.90
2019-03-17T16:49:35.328Z,67.63
2019-03-17T16:52:06.301Z,67.45
2019-03-17T16:54:35.732Z,67.82
2019-03-17T16:57:05.149Z,67.89
2019-03-17T16:59:34.577Z,68.80
2019-03-17T17:02:04.069Z,69.30
2019-03-17T17:04:33.582Z,69.52
2019-03-17T17:07:03.018Z,69.90
2019-03-17T17:09:32.454Z,70.46
2019-03-17T17:12:01.931Z,70.63
2019-03-17T17:14:31.369Z,70.90
2019-03-17T17:17:00.781Z,70.87
2019-03-17T17:19:31.976Z,70.92
2019-03-17T17:22:01.401Z,71.01
2019-03-17T17:24:35.763Z,71.32
2019-03-17T17:27:08.298Z,70.79
2019-03-17T17:29:37.697Z,70.79
2019-03-17T17:32:08.171Z,70.67
2019-03-17T17:34:37.673Z,71.05
2019-03-17T17:37:08.778Z,70.71
2019-03-17T17:39:38.362Z,70.55
2019-03-17T17:42:09.886Z,70.62
2019-03-17T17:44:40.221Z,70.72
2019-03-17T17:47:09.667Z,70.88
2019-03-17T17:49:40.697Z,70.99
2019-03-17T17:52:10.171Z,70.93
2019-03-17T17:54:39.733Z,70.49
2019-03-17T17:57:09.616Z,70.34
2019-03-17T17:59:44.810Z,70.70
2019-03-17T18:02:14.921Z,71.00
2019-03-17T18:04:44.398Z,70.74
2019-03-17T18:07:13.961Z,70.99
2019-03-17T18:09:43.380Z,71.30
2019-03-17T18:12:20.839Z,70.91
2019-03-17T18:14:43.926Z,71.08
2019-03-17T18:17:17.628Z,71.30
2019-03-17T18:19:47.100Z,71.82
2019-03-17T18:22:16.540Z,72.20
2019-03-17T18:24:46.026Z,72.29
2019-03-17T18:27:18.119Z,72.53
2019-03-17T18:29:46.768Z,72.85
2019-03-17T18:32:19.316Z,73.10
2019-03-17T18:34:50.593Z,73.33
2019-03-17T18:37:19.875Z,73.53
2019-03-17T18:39:49.410Z,73.27
2019-03-17T18:42:18.810Z,73.30
2019-03-17T18:44:48.325Z,73.25
2019-03-17T18:47:17.758Z,73.31
2019-03-17T18:49:48.722Z,73.26
2019-03-17T18:52:18.160Z,73.09
2019-03-17T18:54:47.611Z,73.25
2019-03-17T18:57:21.542Z,73.13
2019-03-17T18:59:51.296Z,73.30
2019-03-17T19:02:20.807Z,73.25
2019-03-17T19:04:53.352Z,73.12
2019-03-17T19:07:22.794Z,72.52
2019-03-17T19:09:52.226Z,72.61
2019-03-17T19:12:21.713Z,72.34
2019-03-17T19:14:51.127Z,72.04
2019-03-17T19:17:20.570Z,71.81
2019-03-17T19:19:51.604Z,71.57
2019-03-17T19:22:21.052Z,71.58
2019-03-17T19:24:50.523Z,71.59
2019-03-17T19:27:20.093Z,71.60
2019-03-17T19:29:49.533Z,71.93
2019-03-17T19:32:18.955Z,71.77
2019-03-17T19:34:49.930Z,71.70
2019-03-17T19:37:20.902Z,71.84
2019-03-17T19:39:50.404Z,71.37
2019-03-17T19:42:19.958Z,71.29
2019-03-17T19:44:49.553Z,71.02
2019-03-17T19:47:21.331Z,71.14
2019-03-17T19:49:50.808Z,71.10
2019-03-17T19:52:20.227Z,70.55
2019-03-17T19:54:49.678Z,70.82
2019-03-17T19:57:19.119Z,70.84
2019-03-17T19:59:48.559Z,70.73
2019-03-17T20:02:18.055Z,71.25
2019-03-17T20:04:47.499Z,71.22
2019-03-17T20:07:16.911Z,71.29
2019-03-17T20:09:46.358Z,71.24
2019-03-17T20:12:15.793Z,71.66
2019-03-17T20:14:45.228Z,71.64
2019-03-17T20:17:14.680Z,71.73
2019-03-17T20:19:48.066Z,71.86
2019-03-17T20:22:17.502Z,71.62
2019-03-17T20:24:46.978Z,71.27
2019-03-17T20:27:17.476Z,71.27
2019-03-17T20:29:46.898Z,71.20
2019-03-17T20:32:16.894Z,70.91
2019-03-17T20:34:46.298Z,70.96
2019-03-17T20:37:15.742Z,71.09
2019-03-17T20:39:45.147Z,71.35
2019-03-17T20:42:14.649Z,71.45
2019-03-17T20:44:44.058Z,71.34
2019-03-17T20:47:13.500Z,71.66
2019-03-17T20:49:42.915Z,72.09
2019-03-17T20:52:19.752Z,72.60
2019-03-17T20:54:50.805Z,72.96
2019-03-17T20:57:20.246Z,73.15
2019-03-17T20:59:49.667Z,73.43
2019-03-17T21:02:19.143Z,73.19
2019-03-17T21:04:48.587Z,73.27
2019-03-17T21:07:18.009Z,72.72
2019-03-17T21:09:47.443Z,72.29
2019-03-17T21:12:16.853Z,71.85
2019-03-17T21:14:46.336Z,71.58
2019-03-17T21:17:15.763Z,71.60
2019-03-17T21:19:45.197Z,71.63
2019-03-17T21:22:14.610Z,71.44
2019-03-17T21:24:49.381Z,71.56
2019-03-17T21:27:18.817Z,71.49
2019-03-17T21:29:48.220Z,71.77
2019-03-17T21:32:17.659Z,71.89
2019-03-17T21:34:49.913Z,72.02
2019-03-17T21:37:21.926Z,72.16
2019-03-17T21:39:51.302Z,72.20
2019-03-17T21:42:20.822Z,72.37
2019-03-17T21:44:50.319Z,72.36
2019-03-17T21:47:22.468Z,72.22
2019-03-17T21:49:51.909Z,71.98
2019-03-17T21:52:21.338Z,71.47
2019-03-17T21:54:52.324Z,71.01
2019-03-17T21:57:24.258Z,70.90
2019-03-17T21:59:53.679Z,70.32
2019-03-17T22:02:23.168Z,70.49
2019-03-17T22:04:52.649Z,70.54
2019-03-17T22:07:22.081Z,70.45
2019-03-17T22:09:55.799Z,70.24
2019-03-17T22:12:26.939Z,70.22
2019-03-17T22:14:59.061Z,69.83
2019-03-17T22:17:28.511Z,69.74
2019-03-17T22:19:57.917Z,69.70
2019-03-17T22:22:27.423Z,69.65
2019-03-17T22:24:56.898Z,69.33
2019-03-17T22:27:26.345Z,69.47
2019-03-17T22:29:55.794Z,69.12
2019-03-17T22:32:25.202Z,69.26
2019-03-17T22:34:59.989Z,69.35
2019-03-17T22:37:29.433Z,69.23
2019-03-17T22:39:58.857Z,68.77
2019-03-17T22:42:28.299Z,68.79
2019-03-17T22:44:57.715Z,68.66
2019-03-17T22:47:27.166Z,68.26
2019-03-17T22:49:56.731Z,68.21
2019-03-17T22:52:27.713Z,68.14
2019-03-17T22:55:03.090Z,68.16
2019-03-17T22:57:32.569Z,68.36
2019-03-17T23:00:01.996Z,68.54
2019-03-17T23:02:33.280Z,68.76
2019-03-17T23:05:02.857Z,69.14
2019-03-17T23:07:32.296Z,68.92
2019-03-17T23:10:02.188Z,69.38
2019-03-17T23:12:33.790Z,69.81
2019-03-17T23:15:03.960Z,69.77
2019-03-17T23:17:33.394Z,69.95
2019-03-17T23:20:02.828Z,70.34
2019-03-17T23:22:32.303Z,70.46
2019-03-17T23:25:02.387Z,70.60
2019-03-17T23:27:37.518Z,71.04
2019-03-17T23:30:10.411Z,71.26
2019-03-17T23:32:39.880Z,71.35
2019-03-17T23:35:09.554Z,71.71
2019-03-17T23:37:41.033Z,71.86
2019-03-17T23:40:13.164Z,71.81
2019-03-17T23:42:42.650Z,71.95
2019-03-17T23:45:12.969Z,72.02
2019-03-17T23:47:42.455Z,72.12
2019-03-17T23:50:18.446Z,72.24
2019-03-17T23:52:47.858Z,72.16
2019-03-17T23:55:17.275Z,72.39
2019-03-17T23:57:46.711Z,72.60
